Time;durP1;ratioP1;P1;durP2;ratioP2;P2;SDS_P1;SDS_P2;PMS_P1;PMS_P2;Temp;Humidity;BMP_temperature;BMP_pressure;BME280_temperature;BME280_humidity;BME280_pressure;Samples;Min_cycle;Max_cycle;Signal;HPM_P1;HPM_P2
2022/01/11 00:00:11;;;;;;;8.02;7.82;;;4.10;99.90;;;;;;4159027;28;20081;-52
2022/01/11 00:02:16;;;;;;;7.95;7.32;;;4.10;99.90;;;;;;4156942;28;20953;-52
2022/01/11 00:04:20;;;;;;;7.97;7.68;;;4.10;99.90;;;;;;4159856;28;20076;-52
2022/01/11 00:06:40;;;;;;;6.95;6.85;;;3.90;99.90;;;;;;4158417;28;20126;-52
2022/01/11 00:08:44;;;;;;;6.65;6.45;;;4.00;99.90;;;;;;4159545;28;20049;-52
2022/01/11 00:10:53;;;;;;;7.88;7.57;;;4.10;99.90;;;;;;4157983;28;20140;-50
2022/01/11 00:12:57;;;;;;;6.30;6.00;;;4.20;99.90;;;;;;4160617;28;20449;-52
2022/01/11 00:14:59;;;;;;;7.90;7.65;;;4.20;99.90;;;;;;4157819;28;20075;-51
2022/01/11 00:17:01;;;;;;;8.45;8.20;;;4.10;99.90;;;;;;4160347;28;20103;-52
2022/01/11 00:19:06;;;;;;;8.63;8.07;;;4.10;99.90;;;;;;4157699;28;20064;-51
2022/01/11 00:21:08;;;;;;;7.15;6.63;;;4.00;99.90;;;;;;4159847;28;20072;-51
2022/01/11 00:25:12;;;;;;;8.13;7.75;;;4.10;99.90;;;;;;4157299;28;19964;-51
2022/01/11 00:27:14;;;;;;;7.32;6.93;;;4.10;99.90;;;;;;4156608;28;20073;-51
2022/01/11 00:29:16;;;;;;;7.60;7.25;;;4.00;99.90;;;;;;4160482;28;20049;-52
2022/01/11 00:31:19;;;;;;;6.45;6.03;;;4.00;99.90;;;;;;4157776;28;20073;-51
2022/01/11 00:33:40;;;;;;;7.15;6.85;;;4.10;99.90;;;;;;4159425;28;20045;-49
2022/01/11 00:35:56;;;;;;;7.60;7.05;;;4.00;99.90;;;;;;4157432;28;20117;-49
2022/01/11 00:37:58;;;;;;;7.38;6.70;;;3.90;99.90;;;;;;4159605;28;20045;-51
2022/01/11 00:40:04;;;;;;;7.38;7.00;;;3.90;99.90;;;;;;4158633;28;20691;-51
2022/01/11 00:42:06;;;;;;;9.45;8.85;;;3.90;99.90;;;;;;4159296;28;20033;-52
2022/01/11 00:44:10;;;;;;;7.75;7.43;;;4.00;99.90;;;;;;4159600;28;20076;-50
2022/01/11 00:46:13;;;;;;;8.02;7.72;;;4.10;99.90;;;;;;4163916;28;20072;-51
2022/01/11 00:48:16;;;;;;;6.53;6.43;;;4.10;99.90;;;;;;4157725;28;20359;-50
2022/01/11 00:50:18;;;;;;;6.55;6.28;;;4.00;99.90;;;;;;4159963;28;20056;-49
2022/01/11 00:52:20;;;;;;;6.88;6.68;;;4.10;99.90;;;;;;4157852;28;20497;-49
2022/01/11 00:54:22;;;;;;;7.35;6.82;;;4.10;99.90;;;;;;4162136;28;20060;-50
2022/01/11 00:56:24;;;;;;;6.65;6.50;;;4.00;99.90;;;;;;4160600;28;20096;-51
2022/01/11 00:58:27;;;;;;;7.30;7.05;;;4.00;99.90;;;;;;4163560;28;20065;-51
2022/01/11 01:00:35;;;;;;;7.55;7.00;;;4.00;99.90;;;;;;4160735;28;20764;-53
2022/01/11 01:02:41;;;;;;;6.88;6.78;;;4.00;99.90;;;;;;4163252;28;20133;-51
2022/01/11 01:04:44;;;;;;;6.68;6.47;;;4.10;99.90;;;;;;4161717;28;20050;-53
2022/01/11 01:06:46;;;;;;;5.55;5.35;;;4.00;99.90;;;;;;4163276;28;20589;-52
2022/01/11 01:08:48;;;;;;;7.25;7.00;;;4.10;99.90;;;;;;4160773;28;20041;-51
2022/01/11 01:10:50;;;;;;;7.00;6.80;;;4.10;99.90;;;;;;4163215;28;20045;-50
2022/01/11 01:13:03;;;;;;;7.05;6.75;;;4.20;99.90;;;;;;4161674;28;20152;-52
2022/01/11 01:15:06;;;;;;;6.88;6.40;;;4.10;99.90;;;;;;4163189;28;20474;-51
2022/01/11 01:17:08;;;;;;;;;;;4.10;99.90;;;;;;4159300;28;20109;-50
2022/01/11 01:19:10;;;;;;;6.63;6.43;;;4.10;99.90;;;;;;4161706;28;19921;-49
2022/01/11 01:21:12;;;;;;;7.57;7.28;;;4.10;99.90;;;;;;4159390;28;20575;-51
2022/01/11 01:23:14;;;;;;;8.13;7.72;;;4.10;99.90;;;;;;4160916;28;20026;-48
2022/01/11 01:25:20;;;;;;;6.63;6.38;;;4.10;99.90;;;;;;4161038;28;20041;-51
2022/01/11 01:27:22;;;;;;;7.00;6.55;;;4.10;99.90;;;;;;4162870;28;20483;-53
2022/01/11 01:29:24;;;;;;;7.53;7.18;;;4.10;99.90;;;;;;4159721;28;20682;-50
2022/01/11 01:31:28;;;;;;;7.95;7.63;;;4.00;99.90;;;;;;4162855;28;20132;-51
2022/01/11 01:33:32;;;;;;;7.18;6.63;;;4.10;99.90;;;;;;4160336;28;20083;-53
2022/01/11 01:35:43;;;;;;;7.50;7.18;;;4.10;99.90;;;;;;4162847;28;20466;-48
2022/01/11 01:37:46;;;;;;;7.70;7.28;;;4.00;99.90;;;;;;4158917;28;20073;-49
2022/01/11 01:39:48;;;;;;;9.10;7.60;;;4.00;99.90;;;;;;4163331;28;20080;-50
2022/01/11 01:41:52;;;;;;;7.47;6.55;;;3.90;99.90;;;;;;4161506;28;20518;-48
2022/01/11 01:44:00;;;;;;;6.75;6.55;;;4.00;99.90;;;;;;4166987;28;20073;-50
2022/01/11 01:46:02;;;;;;;6.32;5.85;;;3.90;99.90;;;;;;4156398;28;20064;-52
2022/01/11 01:48:06;;;;;;;8.10;7.90;;;4.00;99.90;;;;;;4161185;28;20067;-50
2022/01/11 01:50:10;;;;;;;7.70;7.50;;;3.90;99.90;;;;;;4161867;28;20041;-49
2022/01/11 01:52:14;;;;;;;6.95;6.80;;;3.80;99.90;;;;;;4161352;28;20037;-50
2022/01/11 01:54:16;;;;;;;8.27;8.07;;;3.70;99.90;;;;;;4158741;28;20584;-51
2022/01/11 01:56:21;;;;;;;9.38;8.68;;;3.70;99.90;;;;;;4162697;28;20073;-52
2022/01/11 01:58:25;;;;;;;7.38;7.00;;;3.80;99.90;;;;;;4159348;28;20029;-51
2022/01/11 02:00:29;;;;;;;6.68;6.47;;;3.80;99.90;;;;;;4161146;28;20053;-50
2022/01/11 02:02:31;;;;;;;7.70;7.30;;;3.80;99.90;;;;;;4158876;28;20073;-51
2022/01/11 02:04:34;;;;;;;7.25;6.82;;;4.00;99.90;;;;;;4163269;28;20064;-51
2022/01/11 02:06:36;;;;;;;7.18;6.97;;;3.90;99.90;;;;;;4162171;28;20041;-53
2022/01/11 02:08:39;;;;;;;7.22;6.93;;;3.90;99.90;;;;;;4159975;28;20079;-52
2022/01/11 02:10:41;;;;;;;7.57;6.72;;;3.80;99.90;;;;;;4161282;28;20049;-52
2022/01/11 02:12:43;;;;;;;7.78;7.43;;;3.70;99.90;;;;;;4161506;28;20132;-53
2022/01/11 02:14:45;;;;;;;8.48;6.38;;;3.60;99.90;;;;;;4159462;28;20108;-51
2022/01/11 02:16:47;;;;;;;7.65;7.10;;;3.60;99.90;;;;;;4163006;28;20069;-50
2022/01/11 02:18:51;;;;;;;8.75;8.13;;;3.80;99.90;;;;;;4160918;28;20681;-52
2022/01/11 02:20:58;;;;;;;8.52;8.00;;;3.70;99.90;;;;;;4158814;28;20038;-52
2022/01/11 02:23:00;;;;;;;8.38;8.05;;;3.80;99.90;;;;;;4160974;28;20469;-51
2022/01/11 02:25:03;;;;;;;8.30;7.90;;;4.00;99.90;;;;;;4161573;28;20128;-52
2022/01/11 02:27:05;;;;;;;;;;;4.10;99.90;;;;;;4161596;28;20091;-53
2022/01/11 02:29:07;;;;;;;8.63;8.25;;;4.00;99.90;;;;;;4159657;28;20011;-53
2022/01/11 02:31:12;;;;;;;9.63;9.23;;;4.00;99.90;;;;;;4161596;28;20072;-52
2022/01/11 02:33:32;;;;;;;9.00;8.73;;;4.10;99.90;;;;;;4160061;28;20421;-51
2022/01/11 02:35:34;;;;;;;8.38;7.88;;;4.00;99.90;;;;;;4158941;28;20037;-52
2022/01/11 02:37:40;;;;;;;7.88;7.70;;;4.00;99.90;;;;;;4162201;28;20038;-52
2022/01/11 02:39:45;;;;;;;7.38;6.82;;;3.90;99.90;;;;;;4158867;28;20045;-52
2022/01/11 02:41:54;;;;;;;7.38;7.07;;;4.00;99.90;;;;;;4161349;28;20068;-52
2022/01/11 02:43:58;;;;;;;6.35;5.97;;;3.90;99.90;;;;;;4157183;28;20081;-52
2022/01/11 02:46:01;;;;;;;6.18;6.07;;;3.90;99.90;;;;;;4162307;28;20064;-52
2022/01/11 02:48:04;;;;;;;6.72;6.53;;;3.90;99.90;;;;;;4157076;28;20041;-53
2022/01/11 02:50:08;;;;;;;7.90;7.50;;;3.80;99.90;;;;;;4161942;28;20064;-53
2022/01/11 02:52:10;;;;;;;6.03;5.80;;;3.70;99.90;;;;;;4158627;28;20065;-54
2022/01/11 02:54:12;;;;;;;6.82;6.50;;;3.70;99.90;;;;;;4160824;28;20048;-53
2022/01/11 02:56:15;;;;;;;8.82;8.32;;;3.80;99.90;;;;;;4160452;28;20104;-55
2022/01/11 02:58:17;;;;;;;8.65;8.07;;;3.80;99.90;;;;;;4159932;28;20439;-54
2022/01/11 03:00:22;;;;;;;7.65;7.18;;;3.80;99.90;;;;;;4159784;28;20037;-53
2022/01/11 03:02:24;;;;;;;7.40;7.20;;;3.80;99.90;;;;;;4159605;28;20026;-53
2022/01/11 03:04:30;;;;;;;8.45;8.05;;;3.80;99.90;;;;;;4158540;28;20033;-54
2022/01/11 03:06:32;;;;;;;9.20;8.52;;;3.80;99.90;;;;;;4161473;28;20048;-53
2022/01/11 03:08:39;;;;;;;7.47;7.28;;;3.80;99.90;;;;;;4158211;28;20120;-54
2022/01/11 03:10:41;;;;;;;7.75;7.53;;;3.80;99.90;;;;;;4161515;28;20060;-54
2022/01/11 03:12:43;;;;;;;8.48;8.13;;;3.70;99.90;;;;;;4160283;28;20088;-53
2022/01/11 03:14:45;;;;;;;8.65;8.23;;;3.60;99.90;;;;;;4167080;28;20055;-53
2022/01/11 03:16:47;;;;;;;8.80;8.48;;;3.60;99.90;;;;;;4163270;28;20081;-53
2022/01/11 03:18:49;;;;;;;9.52;8.93;;;3.60;99.90;;;;;;4158667;28;20037;-54
2022/01/11 03:20:53;;;;;;;9.93;9.50;;;3.70;99.90;;;;;;4158677;28;20487;-53
2022/01/11 03:22:55;;;;;;;8.48;8.00;;;3.60;99.90;;;;;;4161529;28;20584;-53
2022/01/11 03:24:57;;;;;;;8.95;8.15;;;3.60;99.90;;;;;;4158384;28;20065;-53
2022/01/11 03:27:00;;;;;;;8.52;8.32;;;3.50;99.90;;;;;;4161621;28;20073;-53
2022/01/11 03:29:02;;;;;;;8.02;7.72;;;3.60;99.90;;;;;;4158366;28;20484;-54
2022/01/11 03:31:04;;;;;;;9.40;8.90;;;3.70;99.90;;;;;;4160557;28;20083;-53
2022/01/11 03:33:08;;;;;;;8.40;7.95;;;3.70;99.90;;;;;;4147342;28;20049;-54
2022/01/11 03:35:12;;;;;;;10.18;9.55;;;3.60;99.90;;;;;;4159451;28;20037;-54
2022/01/11 03:37:16;;;;;;;8.10;7.90;;;3.60;99.90;;;;;;4158372;28;20040;-55
2022/01/11 03:39:18;;;;;;;8.15;7.68;;;3.80;99.90;;;;;;4160219;28;20604;-53
2022/01/11 03:41:20;;;;;;;7.78;7.38;;;3.70;99.90;;;;;;4152664;28;20739;-53
2022/01/11 03:43:24;;;;;;;8.27;7.90;;;3.70;99.90;;;;;;4159567;28;20068;-52
2022/01/11 03:45:27;;;;;;;9.85;9.25;;;3.70;99.90;;;;;;4160625;28;20029;-52
2022/01/11 03:47:30;;;;;;;10.25;9.85;;;3.70;99.90;;;;;;4157477;28;20533;-55
2022/01/11 03:49:32;;;;;;;9.93;9.07;;;3.80;99.90;;;;;;4159829;28;20061;-53
2022/01/11 03:51:37;;;;;;;8.25;7.85;;;3.70;99.90;;;;;;4158585;28;20060;-53
2022/01/11 03:53:51;;;;;;;11.00;10.57;;;3.60;99.90;;;;;;4160229;28;20073;-53
2022/01/11 03:57:57;;;;;;;;;;;3.80;99.90;;;;;;4160596;28;20041;-54
2022/01/11 04:00:01;;;;;;;7.68;7.38;;;3.90;99.90;;;;;;4158872;28;20012;-53
2022/01/11 04:02:03;;;;;;;9.45;9.05;;;3.90;99.90;;;;;;4145356;28;20526;-53
2022/01/11 04:04:06;;;;;;;;;;;3.90;99.90;;;;;;4157451;28;20485;-53
2022/01/11 04:06:08;;;;;;;10.23;9.88;;;3.80;99.90;;;;;;4149387;28;19963;-53
2022/01/11 04:08:11;;;;;;;12.18;11.50;;;3.70;99.90;;;;;;4158193;28;20591;-53
2022/01/11 04:10:14;;;;;;;11.45;10.65;;;3.70;99.90;;;;;;4160655;28;20087;-54
2022/01/11 04:12:16;;;;;;;14.95;14.07;;;3.70;99.90;;;;;;4156597;28;20045;-54
2022/01/11 04:14:18;;;;;;;15.23;14.38;;;3.60;99.90;;;;;;4156775;28;20456;-54
2022/01/11 04:16:21;;;;;;;14.45;13.95;;;3.70;99.90;;;;;;4156840;28;20433;-54
2022/01/11 04:18:23;;;;;;;16.92;16.10;;;3.70;99.90;;;;;;4157735;28;20040;-54
2022/01/11 04:20:25;;;;;;;15.18;14.75;;;3.60;99.90;;;;;;4157510;28;20037;-54
2022/01/11 04:22:27;;;;;;;14.20;13.40;;;3.70;99.90;;;;;;4160618;28;20490;-54
2022/01/11 04:24:29;;;;;;;13.50;12.77;;;3.70;99.90;;;;;;4156612;28;20129;-54
2022/01/11 04:26:31;;;;;;;10.73;10.48;;;3.60;99.90;;;;;;4161209;28;20049;-54
2022/01/11 04:28:33;;;;;;;12.60;11.93;;;3.40;99.90;;;;;;4154867;28;20077;-55
2022/01/11 04:30:36;;;;;;;10.38;9.98;;;3.50;99.90;;;;;;4159351;28;20053;-55
2022/01/11 04:32:39;;;;;;;13.55;12.45;;;3.40;99.90;;;;;;4156118;28;20100;-54
2022/01/11 04:34:41;;;;;;;11.70;11.25;;;3.50;99.90;;;;;;4161181;28;20041;-55
2022/01/11 04:36:44;;;;;;;12.68;12.15;;;3.60;99.90;;;;;;4156013;28;20045;-55
2022/01/11 04:38:46;;;;;;;;;;;3.60;99.90;;;;;;4159999;28;20113;-55
2022/01/11 04:40:48;;;;;;;10.40;9.85;;;3.60;99.90;;;;;;4156450;28;19925;-55
2022/01/11 04:42:50;;;;;;;;;;;3.60;99.90;;;;;;4160063;28;20041;-53
2022/01/11 04:44:52;;;;;;;10.35;9.65;;;3.50;99.90;;;;;;4155920;28;19925;-55
2022/01/11 04:46:55;;;;;;;9.23;8.73;;;3.60;99.90;;;;;;4160054;28;20034;-55
2022/01/11 04:48:59;;;;;;;11.73;11.32;;;3.70;99.90;;;;;;4155379;28;20528;-55
2022/01/11 04:51:03;;;;;;;10.95;10.32;;;3.80;99.90;;;;;;4160168;28;20045;-54
2022/01/11 04:53:05;;;;;;;13.02;9.70;;;3.70;99.90;;;;;;4152958;28;20103;-54
2022/01/11 04:55:09;;;;;;;9.95;9.57;;;3.70;99.90;;;;;;4159992;28;20034;-54
2022/01/11 04:57:18;;;;;;;9.00;8.80;;;3.70;99.90;;;;;;4158001;28;20108;-54
2022/01/11 04:59:21;;;;;;;8.50;8.10;;;3.70;99.90;;;;;;4157852;28;20046;-55
2022/01/11 05:01:23;;;;;;;8.95;8.75;;;3.70;99.90;;;;;;4156457;28;20117;-55
2022/01/11 05:03:26;;;;;;;9.45;9.13;;;3.60;99.90;;;;;;4161054;28;20110;-54
2022/01/11 05:05:29;;;;;;;10.65;10.23;;;3.60;99.90;;;;;;4158998;28;20076;-54
2022/01/11 05:07:32;;;;;;;9.30;9.05;;;3.50;99.90;;;;;;4158610;28;20096;-55
2022/01/11 05:09:34;;;;;;;10.95;10.40;;;3.50;99.90;;;;;;4159202;28;20038;-55
2022/01/11 05:11:36;;;;;;;10.25;9.80;;;3.50;99.90;;;;;;4157654;28;20681;-55
2022/01/11 05:13:38;;;;;;;13.05;12.43;;;3.40;99.90;;;;;;4157840;28;20114;-55
2022/01/11 05:15:41;;;;;;;10.15;9.65;;;3.40;99.90;;;;;;4158374;28;20581;-55
2022/01/11 05:17:43;;;;;;;11.70;11.05;;;3.50;99.90;;;;;;4156302;28;20100;-55
2022/01/11 05:19:45;;;;;;;10.48;10.02;;;3.50;99.90;;;;;;4160145;28;20057;-55
2022/01/11 05:21:47;;;;;;;9.23;8.77;;;3.60;99.90;;;;;;4156943;28;20064;-55
2022/01/11 05:23:49;;;;;;;15.32;14.02;;;3.50;99.90;;;;;;4159233;28;20046;-55
2022/01/11 05:25:51;;;;;;;14.02;13.10;;;3.50;99.90;;;;;;4156905;28;20822;-54
2022/01/11 05:27:54;;;;;;;11.10;10.35;;;3.50;99.90;;;;;;4160171;28;20097;-55
2022/01/11 05:29:56;;;;;;;11.25;10.63;;;3.50;99.90;;;;;;4143898;28;20073;-55
2022/01/11 05:31:59;;;;;;;11.45;10.13;;;3.60;99.90;;;;;;4159328;28;20548;-56
2022/01/11 05:34:02;;;;;;;13.27;12.48;;;3.60;99.90;;;;;;4158526;28;20375;-56
2022/01/11 05:36:04;;;;;;;11.75;11.18;;;3.60;99.90;;;;;;4158876;28;20065;-56
2022/01/11 05:38:06;;;;;;;8.48;8.23;;;3.50;99.90;;;;;;4153719;28;20738;-55
2022/01/11 05:40:10;;;;;;;9.77;9.38;;;3.60;99.90;;;;;;4159841;28;20595;-56
2022/01/11 05:42:13;;;;;;;10.23;9.73;;;3.60;99.90;;;;;;4159596;28;20534;-55
2022/01/11 05:44:15;;;;;;;10.60;9.57;;;3.60;99.90;;;;;;4162300;28;20068;-55
2022/01/11 05:46:17;;;;;;;10.77;10.07;;;3.70;99.90;;;;;;4162162;28;20132;-56
2022/01/11 05:48:20;;;;;;;10.85;10.55;;;3.70;99.90;;;;;;4160648;28;20501;-56
2022/01/11 05:50:23;;;;;;;15.15;14.50;;;3.70;99.90;;;;;;4161481;28;20129;-56
2022/01/11 05:52:25;;;;;;;12.82;12.52;;;3.60;99.90;;;;;;4160349;28;20065;-55
2022/01/11 05:54:27;;;;;;;11.70;11.18;;;3.70;99.90;;;;;;4162381;28;20116;-56
2022/01/11 05:56:29;;;;;;;14.23;13.52;;;3.60;99.90;;;;;;4161473;28;20037;-56
2022/01/11 05:58:31;;;;;;;13.93;13.30;;;3.60;99.90;;;;;;4162153;28;20041;-55
2022/01/11 06:00:33;;;;;;;13.88;13.50;;;3.60;99.90;;;;;;4158368;28;20044;-55
2022/01/11 06:02:35;;;;;;;18.25;17.52;;;3.60;99.90;;;;;;4155593;28;20052;-55
2022/01/11 06:04:38;;;;;;;13.25;12.65;;;3.70;99.90;;;;;;4160903;28;20052;-55
2022/01/11 06:06:40;;;;;;;18.33;17.17;;;3.60;99.90;;;;;;4161320;28;20065;-55
2022/01/11 06:08:42;;;;;;;16.33;15.77;;;3.60;99.90;;;;;;4159706;28;20038;-56
2022/01/11 06:10:47;;;;;;;14.30;13.52;;;3.50;99.90;;;;;;4161725;28;20046;-56
2022/01/11 06:12:49;;;;;;;14.98;14.27;;;3.50;99.90;;;;;;4156205;28;20159;-56
2022/01/11 06:14:51;;;;;;;10.27;9.68;;;3.40;99.90;;;;;;4161603;28;20112;-55
2022/01/11 06:16:53;;;;;;;12.93;12.35;;;3.40;99.90;;;;;;4158806;28;20045;-56
2022/01/11 06:18:55;;;;;;;13.45;12.65;;;3.30;99.90;;;;;;4158328;28;20124;-55
2022/01/11 06:20:57;;;;;;;12.52;12.23;;;3.50;99.90;;;;;;4159936;28;20092;-56
2022/01/11 06:22:59;;;;;;;14.95;11.35;;;3.50;99.90;;;;;;4158746;28;20034;-56
2022/01/11 06:25:03;;;;;;;14.25;13.07;;;3.50;99.90;;;;;;4156355;28;20584;-60
2022/01/11 06:27:05;;;;;;;14.60;13.77;;;3.50;99.90;;;;;;4161563;28;20037;-60
2022/01/11 06:29:07;;;;;;;12.60;12.02;;;3.50;99.90;;;;;;4157188;28;20064;-60
2022/01/11 06:31:10;;;;;;;11.50;10.98;;;3.40;99.90;;;;;;4161464;28;20080;-60
2022/01/11 06:33:12;;;;;;;;;;;3.40;99.90;;;;;;4159987;28;20034;-60
2022/01/11 06:35:18;;;;;;;8.90;8.38;;;3.30;99.90;;;;;;4159512;28;19929;-60
2022/01/11 06:37:20;;;;;;;8.40;8.18;;;3.50;99.90;;;;;;4159553;28;20073;-60
2022/01/11 06:39:22;;;;;;;8.90;8.50;;;3.40;99.90;;;;;;4160569;28;20502;-60
2022/01/11 06:41:24;;;;;;;9.07;8.00;;;3.30;99.90;;;;;;4158691;28;20069;-60
2022/01/11 06:43:26;;;;;;;8.82;8.35;;;3.30;99.90;;;;;;4162123;28;20551;-60
2022/01/11 06:45:29;;;;;;;7.85;7.40;;;3.40;99.90;;;;;;4161731;28;20369;-60
2022/01/11 06:47:32;;;;;;;9.10;8.55;;;3.40;99.90;;;;;;4154442;28;20038;-60
2022/01/11 06:49:34;;;;;;;10.02;9.50;;;3.60;99.90;;;;;;4148825;28;20468;-60
2022/01/11 06:51:36;;;;;;;9.48;8.88;;;3.60;99.90;;;;;;4158486;28;20072;-60
2022/01/11 06:53:38;;;;;;;8.13;7.82;;;3.60;99.90;;;;;;4151031;28;20045;-60
2022/01/11 06:55:40;;;;;;;8.35;7.68;;;3.70;99.90;;;;;;4161967;28;20069;-60
2022/01/11 06:57:43;;;;;;;6.82;6.55;;;3.50;99.90;;;;;;4159008;28;20129;-60
2022/01/11 06:59:45;;;;;;;6.55;6.25;;;3.40;99.90;;;;;;4159532;28;20053;-60
2022/01/11 07:01:47;;;;;;;6.82;6.47;;;3.50;99.90;;;;;;4160994;28;20068;-61
2022/01/11 07:03:49;;;;;;;7.55;6.90;;;3.50;99.90;;;;;;4158595;28;20087;-60
2022/01/11 07:05:51;;;;;;;5.15;5.05;;;3.70;99.90;;;;;;4159889;28;20049;-60
2022/01/11 07:07:53;;;;;;;6.90;6.63;;;3.70;99.90;;;;;;4160906;28;20042;-60
2022/01/11 07:09:55;;;;;;;7.38;6.90;;;3.60;99.90;;;;;;4159451;28;20091;-61
2022/01/11 07:11:57;;;;;;;6.13;5.93;;;3.60;99.90;;;;;;4160435;28;20041;-60
2022/01/11 07:14:03;;;;;;;6.97;6.68;;;3.80;99.90;;;;;;4160824;28;20115;-61
2022/01/11 07:16:05;;;;;;;9.90;9.48;;;4.00;99.90;;;;;;4161824;28;20041;-61
2022/01/11 07:18:10;;;;;;;8.48;8.18;;;3.90;99.90;;;;;;4170736;28;20029;-61
2022/01/11 07:20:12;;;;;;;7.53;7.18;;;3.80;99.90;;;;;;4161496;28;20371;-61
2022/01/11 07:22:14;;;;;;;7.55;7.20;;;3.80;99.90;;;;;;4161159;28;20096;-61
2022/01/11 07:24:17;;;;;;;6.63;6.30;;;3.80;99.90;;;;;;4159187;28;20117;-61
2022/01/11 07:26:19;;;;;;;10.20;9.70;;;3.80;99.90;;;;;;4160867;28;20046;-60
2022/01/11 07:28:23;;;;;;;8.80;8.23;;;3.80;99.90;;;;;;4158914;28;20068;-60
2022/01/11 07:30:25;;;;;;;8.65;8.45;;;3.80;99.90;;;;;;4161084;28;20048;-61
2022/01/11 07:32:27;;;;;;;10.57;9.55;;;3.70;99.90;;;;;;4158925;28;20033;-60
2022/01/11 07:34:29;;;;;;;8.25;8.10;;;3.70;99.90;;;;;;4161215;28;20038;-60
2022/01/11 07:36:32;;;;;;;8.20;8.00;;;3.70;99.90;;;;;;4158516;28;20075;-61
2022/01/11 07:38:34;;;;;;;8.48;8.15;;;3.70;99.90;;;;;;4160873;28;20041;-60
2022/01/11 07:40:37;;;;;;;10.20;9.35;;;3.70;99.90;;;;;;4158298;28;20033;-60
2022/01/11 07:42:40;;;;;;;8.05;7.65;;;3.80;99.90;;;;;;4159944;28;20044;-60
2022/01/11 07:44:43;;;;;;;8.77;8.27;;;3.70;99.90;;;;;;4156475;28;20549;-60
2022/01/11 07:46:46;;;;;;;9.93;9.30;;;3.60;99.90;;;;;;4161897;28;20052;-60
2022/01/11 07:48:48;;;;;;;8.05;7.47;;;3.60;99.90;;;;;;4155834;28;20033;-60
2022/01/11 07:50:50;;;;;;;9.93;8.20;;;3.60;99.90;;;;;;4161766;28;20493;-61
2022/01/11 07:52:52;;;;;;;8.55;8.25;;;3.60;99.90;;;;;;4158266;28;20515;-60
2022/01/11 07:54:54;;;;;;;7.97;7.57;;;3.60;99.90;;;;;;4160703;28;20540;-60
2022/01/11 07:56:56;;;;;;;7.63;7.32;;;3.60;99.90;;;;;;4157174;28;20139;-60
2022/01/11 07:58:58;;;;;;;6.75;6.47;;;3.70;99.90;;;;;;4161456;28;20076;-60
2022/01/11 08:01:00;;;;;;;7.32;7.03;;;3.70;99.90;;;;;;4159613;28;20169;-60
2022/01/11 08:03:03;;;;;;;7.32;7.13;;;3.80;99.90;;;;;;4159005;28;20088;-60
2022/01/11 08:05:06;;;;;;;6.93;6.28;;;3.90;99.90;;;;;;4157548;28;20048;-60
2022/01/11 08:07:10;;;;;;;6.88;6.47;;;3.90;99.90;;;;;;4159686;28;20048;-60
2022/01/11 08:09:14;;;;;;;7.60;7.13;;;3.80;99.90;;;;;;4157349;28;20688;-60
2022/01/11 08:11:16;;;;;;;6.55;6.00;;;3.90;99.90;;;;;;4161724;28;20076;-60
2022/01/11 08:13:18;;;;;;;6.38;5.90;;;3.90;99.90;;;;;;4158286;28;20080;-60
2022/01/11 08:15:21;;;;;;;7.18;6.65;;;3.90;99.90;;;;;;4159200;28;20064;-60
2022/01/11 08:17:23;;;;;;;5.13;5.03;;;3.90;99.90;;;;;;4159441;28;20568;-60
2022/01/11 08:19:26;;;;;;;5.85;5.65;;;3.90;99.90;;;;;;4158750;28;20033;-59
2022/01/11 08:21:28;;;;;;;5.97;5.78;;;4.00;99.90;;;;;;4157832;28;20212;-60
2022/01/11 08:23:30;;;;;;;5.90;5.60;;;4.10;99.90;;;;;;4156604;28;20075;-60
2022/01/11 08:25:33;;;;;;;6.82;6.32;;;4.10;99.90;;;;;;4149166;28;20473;-60
2022/01/11 08:27:35;;;;;;;8.57;8.15;;;4.10;99.90;;;;;;4159996;28;20458;-60
2022/01/11 08:29:39;;;;;;;5.80;5.45;;;4.20;99.90;;;;;;4157384;28;20116;-60
2022/01/11 08:31:41;;;;;;;4.72;4.57;;;4.20;99.90;;;;;;4160640;28;20509;-60
2022/01/11 08:33:44;;;;;;;8.98;5.88;;;4.40;99.90;;;;;;4157474;28;20069;-60
2022/01/11 08:35:46;;;;;;;4.82;4.38;;;4.40;99.90;;;;;;4160047;28;20038;-60
2022/01/11 08:37:48;;;;;;;4.50;4.40;;;4.40;99.90;;;;;;4155788;28;20113;-60
2022/01/11 08:39:50;;;;;;;4.78;4.57;;;4.60;99.90;;;;;;4160642;28;20120;-60
2022/01/11 08:41:52;;;;;;;4.60;4.40;;;4.60;99.90;;;;;;4157507;28;20068;-60
2022/01/11 08:43:54;;;;;;;5.22;4.93;;;4.60;99.90;;;;;;4158876;28;20070;-60
2022/01/11 08:45:56;;;;;;;5.32;4.90;;;4.60;99.90;;;;;;4156518;28;20034;-60
2022/01/11 08:47:59;;;;;;;5.68;5.30;;;4.70;99.90;;;;;;4157218;28;20111;-60
2022/01/11 08:50:04;;;;;;;4.63;4.50;;;4.80;99.90;;;;;;4152114;28;20083;-60
2022/01/11 08:52:06;;;;;;;4.07;3.97;;;4.70;99.90;;;;;;4158747;28;20570;-60
2022/01/11 08:54:11;;;;;;;4.63;4.32;;;4.80;99.90;;;;;;4152209;28;20120;-60
2022/01/11 08:56:17;;;;;;;5.25;4.90;;;4.80;99.90;;;;;;4159367;28;20037;-60
2022/01/11 08:58:20;;;;;;;4.63;4.38;;;4.70;99.90;;;;;;4156918;28;20076;-60
2022/01/11 09:00:26;;;;;;;4.47;4.25;;;4.70;99.90;;;;;;4159294;28;20090;-59
2022/01/11 09:02:29;;;;;;;5.35;5.00;;;4.80;99.90;;;;;;4158714;28;20029;-60
2022/01/11 09:04:32;;;;;;;4.07;3.92;;;4.90;99.90;;;;;;4157511;28;20037;-60
2022/01/11 09:06:34;;;;;;;4.43;4.22;;;4.90;99.90;;;;;;4147586;28;20092;-60
2022/01/11 09:08:50;;;;;;;4.40;4.20;;;4.80;99.90;;;;;;4158965;28;20049;-60
2022/01/11 09:10:52;;;;;;;4.47;4.32;;;4.90;99.90;;;;;;4158586;28;20065;-60
2022/01/11 09:12:54;;;;;;;4.05;3.85;;;5.00;99.90;;;;;;4158474;28;20053;-60
2022/01/11 09:14:56;;;;;;;4.25;4.15;;;5.00;99.90;;;;;;4159547;28;20030;-60
2022/01/11 09:17:02;;;;;;;5.05;4.68;;;5.00;99.90;;;;;;4161627;28;20045;-60
2022/01/11 09:19:04;;;;;;;5.13;4.50;;;5.00;99.90;;;;;;4160314;28;20037;-60
2022/01/11 09:21:06;;;;;;;5.32;5.10;;;5.10;99.90;;;;;;4162577;28;20116;-60
2022/01/11 09:23:08;;;;;;;4.40;4.18;;;5.10;99.90;;;;;;4162585;28;20117;-60
2022/01/11 09:25:12;;;;;;;7.18;4.10;;;5.10;99.90;;;;;;4161992;28;20040;-60
2022/01/11 09:27:14;;;;;;;4.63;4.28;;;5.10;99.90;;;;;;4148703;28;20065;-60
2022/01/11 09:29:16;;;;;;;;;;;5.20;99.90;;;;;;4160750;28;20053;-60
2022/01/11 09:31:18;;;;;;;4.68;4.57;;;5.20;99.90;;;;;;4160369;28;19921;-60
2022/01/11 09:33:21;;;;;;;5.22;4.80;;;5.20;99.90;;;;;;4160427;28;20158;-60
2022/01/11 09:35:23;;;;;;;4.97;4.80;;;5.20;99.90;;;;;;4163242;28;20041;-60
2022/01/11 09:37:25;;;;;;;3.97;3.70;;;5.30;99.90;;;;;;4161551;28;20041;-60
2022/01/11 09:39:27;;;;;;;4.90;4.60;;;5.30;99.90;;;;;;4162579;28;20052;-60
2022/01/11 09:41:34;;;;;;;4.70;4.35;;;5.30;99.90;;;;;;4159511;28;20706;-60
2022/01/11 09:43:37;;;;;;;5.82;5.53;;;5.40;99.90;;;;;;4162971;28;20602;-60
2022/01/11 09:45:39;;;;;;;;;;;5.40;99.90;;;;;;4158205;28;20088;-59
2022/01/11 09:47:42;;;;;;;4.20;3.83;;;5.40;99.90;;;;;;4162957;28;20019;-60
2022/01/11 09:49:44;;;;;;;9.95;6.72;;;5.50;99.90;;;;;;4157375;28;20315;-60
2022/01/11 09:51:47;;;;;;;4.30;3.65;;;5.30;99.90;;;;;;4161524;28;20104;-59
2022/01/11 09:53:49;;;;;;;4.32;4.18;;;5.30;99.90;;;;;;4159875;28;20038;-59
2022/01/11 09:55:51;;;;;;;4.55;4.32;;;5.40;99.90;;;;;;4161111;28;20107;-59
2022/01/11 09:57:53;;;;;;;5.45;5.18;;;5.40;99.90;;;;;;4160393;28;20864;-60
2022/01/11 09:59:55;;;;;;;5.72;4.35;;;5.50;99.90;;;;;;4162655;28;20048;-59
2022/01/11 10:01:58;;;;;;;5.38;4.85;;;5.40;99.90;;;;;;4159490;28;20037;-60
2022/01/11 10:04:06;;;;;;;6.13;4.65;;;5.50;99.90;;;;;;4162725;28;20037;-60
2022/01/11 10:06:15;;;;;;;5.00;4.90;;;5.50;99.90;;;;;;4159778;28;20171;-60
2022/01/11 10:08:22;;;;;;;5.15;5.00;;;5.30;99.90;;;;;;4161461;28;20069;-60
2022/01/11 10:10:26;;;;;;;4.25;4.18;;;5.30;99.90;;;;;;4159499;28;20453;-59
2022/01/11 10:12:39;;;;;;;5.03;4.60;;;5.50;99.90;;;;;;4161212;28;20048;-60
2022/01/11 10:14:49;;;;;;;5.07;4.60;;;5.50;99.90;;;;;;4160237;28;20045;-60
2022/01/11 10:17:07;;;;;;;4.32;4.18;;;5.50;99.90;;;;;;4161644;28;20055;-60
2022/01/11 10:19:22;;;;;;;5.20;5.05;;;5.30;99.90;;;;;;4158380;28;20042;-60
2022/01/11 10:21:34;;;;;;;6.45;5.85;;;5.30;99.90;;;;;;4163349;28;20040;-60
2022/01/11 10:23:36;;;;;;;5.47;5.28;;;5.30;99.90;;;;;;4161597;28;20065;-60
2022/01/11 10:25:46;;;;;;;5.75;5.15;;;5.40;99.90;;;;;;4161497;28;20038;-59
2022/01/11 10:28:02;;;;;;;7.43;4.70;;;5.30;99.90;;;;;;4160987;28;20034;-59
2022/01/11 10:30:15;;;;;;;5.22;5.13;;;5.30;99.90;;;;;;4159655;28;20072;-59
2022/01/11 10:32:19;;;;;;;;;;;5.30;99.90;;;;;;4162214;28;20700;-59
2022/01/11 10:34:32;;;;;;;5.07;4.78;;;5.30;99.90;;;;;;4148084;28;20016;-59
2022/01/11 10:36:44;;;;;;;4.57;4.47;;;5.30;99.90;;;;;;4162585;28;20418;-58
2022/01/11 10:38:46;;;;;;;5.32;5.22;;;5.20;99.90;;;;;;4158468;28;20065;-58
2022/01/11 10:40:48;;;;;;;5.68;5.35;;;5.10;99.90;;;;;;4161265;28;20041;-57
2022/01/11 10:42:52;;;;;;;6.82;6.18;;;5.20;99.90;;;;;;4160217;28;20116;-58
2022/01/11 10:44:59;;;;;;;4.47;4.18;;;5.20;99.90;;;;;;4161121;28;20034;-57
2022/01/11 10:47:02;;;;;;;5.13;4.82;;;5.30;99.90;;;;;;4158906;28;20038;-57
2022/01/11 10:49:05;;;;;;;4.82;4.45;;;5.40;99.90;;;;;;4162079;28;20514;-57
2022/01/11 10:51:14;;;;;;;4.85;4.65;;;5.40;99.90;;;;;;4158230;28;20389;-57
2022/01/11 10:53:21;;;;;;;3.90;3.70;;;5.50;99.90;;;;;;4159970;28;20045;-57